TimeCDT,TemperatureF,Dew PointF,Humidity,Sea Level PressureIn,VisibilityMPH,Wind Direction,Wind SpeedMPH,Gust SpeedMPH,PrecipitationIn,Events,Conditions,WindDirDegrees,DateUTC
12:53 AM,71.1,64.0,78,30.06,10.0,SE,6.9,-,N/A,,Scattered Clouds,140,2013-08-19 05:53:00
1:53 AM,70.0,63.0,78,30.05,10.0,SSE,5.8,-,N/A,,Scattered Clouds,150,2013-08-19 06:53:00
2:53 AM,68.0,63.0,84,30.04,10.0,SSE,3.5,-,N/A,,Partly Cloudy,150,2013-08-19 07:53:00
3:53 AM,66.9,63.0,87,30.04,10.0,SSE,3.5,-,N/A,,Partly Cloudy,160,2013-08-19 08:53:00
4:53 AM,66.9,63.0,87,30.02,10.0,SSE,5.8,-,N/A,,Partly Cloudy,150,2013-08-19 09:53:00
5:53 AM,66.0,63.0,90,30.03,10.0,SSE,4.6,-,N/A,,Scattered Clouds,150,2013-08-19 10:53:00
6:53 AM,66.0,63.0,90,30.04,10.0,SSE,5.8,-,N/A,,Mostly Cloudy,150,2013-08-19 11:53:00
7:53 AM,68.0,64.0,87,30.04,10.0,SSE,9.2,-,N/A,,Mostly Cloudy,160,2013-08-19 12:53:00
8:53 AM,72.0,64.9,78,30.06,10.0,SSE,9.2,-,N/A,,Mostly Cloudy,160,2013-08-19 13:53:00
9:53 AM,75.0,66.0,73,30.06,10.0,SSE,11.5,-,N/A,,Scattered Clouds,160,2013-08-19 14:53:00
10:53 AM,79.0,66.0,64,30.06,10.0,South,13.8,-,N/A,,Scattered Clouds,180,2013-08-19 15:53:00
11:53 AM,81.0,68.0,65,30.05,10.0,SSE,13.8,18.4,N/A,,Scattered Clouds,160,2013-08-19 16:53:00
12:53 PM,82.0,66.9,60,30.04,10.0,South,11.5,-,N/A,,Scattered Clouds,170,2013-08-19 17:53:00
1:53 PM,84.0,66.9,56,30.03,10.0,South,12.7,-,N/A,,Partly Cloudy,190,2013-08-19 18:53:00
2:53 PM,84.9,66.0,53,30.02,10.0,South,17.3,20.7,N/A,,Scattered Clouds,190,2013-08-19 19:53:00
3:53 PM,84.9,68.0,57,30.00,10.0,South,11.5,-,N/A,,Partly Cloudy,180,2013-08-19 20:53:00
4:53 PM,84.9,66.9,55,29.98,10.0,SSE,15.0,-,N/A,,Partly Cloudy,160,2013-08-19 21:53:00
5:53 PM,84.0,68.0,58,29.96,10.0,South,13.8,-,N/A,,Clear,170,2013-08-19 22:53:00
6:53 PM,82.9,66.9,58,29.95,10.0,South,13.8,-,N/A,,Clear,170,2013-08-19 23:53:00
7:53 PM,80.1,66.9,64,29.96,10.0,SSE,8.1,-,N/A,,Clear,150,2013-08-20 00:53:00
8:53 PM,77.0,66.9,71,29.96,10.0,SSE,8.1,-,N/A,,Clear,150,2013-08-20 01:53:00
9:53 PM,75.9,68.0,76,29.98,10.0,SSE,9.2,-,N/A,,Clear,150,2013-08-20 02:53:00
10:53 PM,73.9,66.9,79,29.98,10.0,SSE,10.4,-,N/A,,Clear,160,2013-08-20 03:53:00
11:53 PM,73.0,66.9,81,29.99,10.0,SSE,9.2,-,N/A,,Partly Cloudy,160,2013-08-20 04:53:00